sensor_id;sensor_type;location;lat;lon;timestamp;temperature;humidity
43541;DHT22;29549;40.386;-3.710;2022-12-10T00:04:53;10.60;81.80
43541;DHT22;29549;40.386;-3.710;2022-12-10T00:14:57;10.70;81.60
43541;DHT22;29549;40.386;-3.710;2022-12-10T00:25:00;10.70;81.60
43541;DHT22;29549;40.386;-3.710;2022-12-10T00:35:04;10.70;82.00
43541;DHT22;29549;40.386;-3.710;2022-12-10T00:45:07;10.70;81.90
43541;DHT22;29549;40.386;-3.710;2022-12-10T00:55:10;10.60;82.10
43541;DHT22;29549;40.386;-3.710;2022-12-10T01:05:13;10.50;82.30
43541;DHT22;29549;40.386;-3.710;2022-12-10T01:15:19;10.50;82.20
43541;DHT22;29549;40.386;-3.710;2022-12-10T01:25:27;10.50;82.50
43541;DHT22;29549;40.386;-3.710;2022-12-10T01:35:37;10.50;82.70
43541;DHT22;29549;40.386;-3.710;2022-12-10T01:45:47;10.60;82.30
43541;DHT22;29549;40.386;-3.710;2022-12-10T01:55:55;10.70;82.30
43541;DHT22;29549;40.386;-3.710;2022-12-10T02:17:01;10.70;81.80
43541;DHT22;29549;40.386;-3.710;2022-12-10T02:37:49;10.60;82.30
43541;DHT22;29549;40.386;-3.710;2022-12-10T02:48:12;10.60;82.50
43541;DHT22;29549;40.386;-3.710;2022-12-10T02:59:00;10.70;82.60
43541;DHT22;29549;40.386;-3.710;2022-12-10T03:09:22;10.60;82.80
43541;DHT22;29549;40.386;-3.710;2022-12-10T03:19:47;10.60;83.10
43541;DHT22;29549;40.386;-3.710;2022-12-10T03:30:03;10.70;83.30
43541;DHT22;29549;40.386;-3.710;2022-12-10T03:40:25;10.70;83.30
43541;DHT22;29549;40.386;-3.710;2022-12-10T03:50:43;10.70;83.40
43541;DHT22;29549;40.386;-3.710;2022-12-10T04:00:46;10.70;83.70
43541;DHT22;29549;40.386;-3.710;2022-12-10T04:10:52;10.70;83.70
43541;DHT22;29549;40.386;-3.710;2022-12-10T04:20:55;10.80;83.40
43541;DHT22;29549;40.386;-3.710;2022-12-10T04:31:16;10.80;83.50
43541;DHT22;29549;40.386;-3.710;2022-12-10T04:41:22;10.80;83.40
43541;DHT22;29549;40.386;-3.710;2022-12-10T04:51:44;10.80;83.40
43541;DHT22;29549;40.386;-3.710;2022-12-10T05:01:47;10.80;83.30
43541;DHT22;29549;40.386;-3.710;2022-12-10T05:11:50;10.80;83.30
43541;DHT22;29549;40.386;-3.710;2022-12-10T05:21:53;10.70;83.30
43541;DHT22;29549;40.386;-3.710;2022-12-10T05:32:33;10.70;83.50
43541;DHT22;29549;40.386;-3.710;2022-12-10T05:42:54;10.70;83.30
43541;DHT22;29549;40.386;-3.710;2022-12-10T05:53:15;10.70;83.30
43541;DHT22;29549;40.386;-3.710;2022-12-10T06:03:22;10.70;83.30
43541;DHT22;29549;40.386;-3.710;2022-12-10T06:13:25;10.60;83.30
43541;DHT22;29549;40.386;-3.710;2022-12-10T06:23:28;10.60;83.50
43541;DHT22;29549;40.386;-3.710;2022-12-10T06:33:33;10.60;83.10
43541;DHT22;29549;40.386;-3.710;2022-12-10T06:43:35;10.40;83.30
43541;DHT22;29549;40.386;-3.710;2022-12-10T06:53:38;10.30;83.60
43541;DHT22;29549;40.386;-3.710;2022-12-10T07:03:40;10.20;83.30
43541;DHT22;29549;40.386;-3.710;2022-12-10T07:13:42;10.20;83.30
43541;DHT22;29549;40.386;-3.710;2022-12-10T07:23:46;10.20;83.30
43541;DHT22;29549;40.386;-3.710;2022-12-10T07:33:50;10.10;83.70
43541;DHT22;29549;40.386;-3.710;2022-12-10T07:43:52;10.10;83.30
43541;DHT22;29549;40.386;-3.710;2022-12-10T07:53:54;10.00;82.80
43541;DHT22;29549;40.386;-3.710;2022-12-10T08:03:56;10.00;83.20
43541;DHT22;29549;40.386;-3.710;2022-12-10T08:13:58;10.00;83.50
43541;DHT22;29549;40.386;-3.710;2022-12-10T08:24:00;10.10;83.00
43541;DHT22;29549;40.386;-3.710;2022-12-10T08:34:02;10.10;82.50
43541;DHT22;29549;40.386;-3.710;2022-12-10T08:44:04;10.20;81.70
43541;DHT22;29549;40.386;-3.710;2022-12-10T08:54:05;10.20;82.00
43541;DHT22;29549;40.386;-3.710;2022-12-10T09:04:07;10.20;81.90
43541;DHT22;29549;40.386;-3.710;2022-12-10T09:14:09;10.30;81.50
43541;DHT22;29549;40.386;-3.710;2022-12-10T09:24:11;10.50;81.10
43541;DHT22;29549;40.386;-3.710;2022-12-10T09:34:12;10.70;81.20
43541;DHT22;29549;40.386;-3.710;2022-12-10T09:54:48;11.10;78.40
43541;DHT22;29549;40.386;-3.710;2022-12-10T10:05:19;11.30;77.60
43541;DHT22;29549;40.386;-3.710;2022-12-10T10:15:19;11.40;76.70
43541;DHT22;29549;40.386;-3.710;2022-12-10T10:25:23;11.50;75.80
43541;DHT22;29549;40.386;-3.710;2022-12-10T10:35:34;11.50;75.70
43541;DHT22;29549;40.386;-3.710;2022-12-10T10:45:47;11.70;75.30
43541;DHT22;29549;40.386;-3.710;2022-12-10T10:55:50;11.70;74.40
43541;DHT22;29549;40.386;-3.710;2022-12-10T11:05:54;12.10;74.70
43541;DHT22;29549;40.386;-3.710;2022-12-10T11:16:10;12.30;73.10
43541;DHT22;29549;40.386;-3.710;2022-12-10T12:07:28;14.00;64.10
43541;DHT22;29549;40.386;-3.710;2022-12-10T12:17:41;13.70;65.10
43541;DHT22;29549;40.386;-3.710;2022-12-10T12:27:51;13.80;69.40
43541;DHT22;29549;40.386;-3.710;2022-12-10T12:38:02;14.60;66.30
43541;DHT22;29549;40.386;-3.710;2022-12-10T12:59:05;14.50;63.90
43541;DHT22;29549;40.386;-3.710;2022-12-10T13:29:25;14.20;65.90
43541;DHT22;29549;40.386;-3.710;2022-12-10T13:39:34;14.20;61.10
43541;DHT22;29549;40.386;-3.710;2022-12-10T13:50:02;14.30;57.80
43541;DHT22;29549;40.386;-3.710;2022-12-10T14:00:20;14.30;56.70
43541;DHT22;29549;40.386;-3.710;2022-12-10T14:10:30;14.40;58.40
43541;DHT22;29549;40.386;-3.710;2022-12-10T14:20:34;14.30;62.90
43541;DHT22;29549;40.386;-3.710;2022-12-10T14:30:43;14.20;65.10
43541;DHT22;29549;40.386;-3.710;2022-12-10T14:40:45;14.10;64.70
43541;DHT22;29549;40.386;-3.710;2022-12-10T14:50:47;14.10;64.90
43541;DHT22;29549;40.386;-3.710;2022-12-10T15:00:49;14.20;65.80
43541;DHT22;29549;40.386;-3.710;2022-12-10T15:10:54;13.90;65.10
43541;DHT22;29549;40.386;-3.710;2022-12-10T15:21:23;13.90;66.00
43541;DHT22;29549;40.386;-3.710;2022-12-10T15:51:41;13.50;67.10
43541;DHT22;29549;40.386;-3.710;2022-12-10T16:01:42;13.50;68.10
43541;DHT22;29549;40.386;-3.710;2022-12-10T16:11:44;13.20;69.30
43541;DHT22;29549;40.386;-3.710;2022-12-10T16:21:46;13.30;69.60
43541;DHT22;29549;40.386;-3.710;2022-12-10T16:31:49;13.20;70.00
43541;DHT22;29549;40.386;-3.710;2022-12-10T16:41:52;13.20;70.90
43541;DHT22;29549;40.386;-3.710;2022-12-10T16:51:55;12.90;71.20
43541;DHT22;29549;40.386;-3.710;2022-12-10T17:01:57;12.80;70.20
43541;DHT22;29549;40.386;-3.710;2022-12-10T17:11:58;12.70;70.10
43541;DHT22;29549;40.386;-3.710;2022-12-10T17:22:01;12.70;69.70
43541;DHT22;29549;40.386;-3.710;2022-12-10T17:32:05;12.60;69.10
43541;DHT22;29549;40.386;-3.710;2022-12-10T17:42:08;12.30;70.40
43541;DHT22;29549;40.386;-3.710;2022-12-10T17:52:10;12.20;71.10
43541;DHT22;29549;40.386;-3.710;2022-12-10T18:02:12;12.10;72.00
43541;DHT22;29549;40.386;-3.710;2022-12-10T18:12:13;12.20;72.20
43541;DHT22;29549;40.386;-3.710;2022-12-10T18:22:15;12.20;72.70
43541;DHT22;29549;40.386;-3.710;2022-12-10T18:32:17;12.10;73.30
43541;DHT22;29549;40.386;-3.710;2022-12-10T18:42:19;12.00;73.80
43541;DHT22;29549;40.386;-3.710;2022-12-10T18:52:20;12.00;74.10
43541;DHT22;29549;40.386;-3.710;2022-12-10T19:02:22;12.00;74.70
43541;DHT22;29549;40.386;-3.710;2022-12-10T19:12:23;12.00;75.10
43541;DHT22;29549;40.386;-3.710;2022-12-10T19:22:25;11.90;75.70
43541;DHT22;29549;40.386;-3.710;2022-12-10T19:32:26;11.90;76.30
43541;DHT22;29549;40.386;-3.710;2022-12-10T19:42:28;12.00;76.40
43541;DHT22;29549;40.386;-3.710;2022-12-10T19:52:31;11.80;76.20
43541;DHT22;29549;40.386;-3.710;2022-12-10T20:02:32;11.80;76.10
43541;DHT22;29549;40.386;-3.710;2022-12-10T20:12:34;11.70;76.20
43541;DHT22;29549;40.386;-3.710;2022-12-10T20:22:36;11.70;76.20
43541;DHT22;29549;40.386;-3.710;2022-12-10T20:32:38;11.70;76.10
43541;DHT22;29549;40.386;-3.710;2022-12-10T20:42:40;11.60;76.50
43541;DHT22;29549;40.386;-3.710;2022-12-10T20:52:42;11.60;76.50
43541;DHT22;29549;40.386;-3.710;2022-12-10T21:02:44;11.70;76.50
43541;DHT22;29549;40.386;-3.710;2022-12-10T21:12:46;11.60;76.30
43541;DHT22;29549;40.386;-3.710;2022-12-10T21:22:48;11.70;75.70
43541;DHT22;29549;40.386;-3.710;2022-12-10T21:32:50;11.40;74.80
43541;DHT22;29549;40.386;-3.710;2022-12-10T21:42:52;11.50;73.90
43541;DHT22;29549;40.386;-3.710;2022-12-10T21:53:14;11.30;73.70
43541;DHT22;29549;40.386;-3.710;2022-12-10T22:03:18;11.30;71.40
43541;DHT22;29549;40.386;-3.710;2022-12-10T22:13:22;11.30;69.70
43541;DHT22;29549;40.386;-3.710;2022-12-10T22:23:26;11.20;69.80
43541;DHT22;29549;40.386;-3.710;2022-12-10T22:33:29;11.20;70.00
43541;DHT22;29549;40.386;-3.710;2022-12-10T22:43:31;11.10;70.70
43541;DHT22;29549;40.386;-3.710;2022-12-10T22:53:35;11.10;70.50
43541;DHT22;29549;40.386;-3.710;2022-12-10T23:03:37;11.00;70.50
43541;DHT22;29549;40.386;-3.710;2022-12-10T23:13:40;11.00;69.50
43541;DHT22;29549;40.386;-3.710;2022-12-10T23:23:44;11.00;69.20
43541;DHT22;29549;40.386;-3.710;2022-12-10T23:33:46;11.00;69.40
43541;DHT22;29549;40.386;-3.710;2022-12-10T23:43:47;11.00;69.00
43541;DHT22;29549;40.386;-3.710;2022-12-10T23:53:50;11.10;68.80
